Time;durP1;ratioP1;P1;durP2;ratioP2;P2;SDS_P1;SDS_P2;PMS_P1;PMS_P2;Temp;Humidity;BMP_temperature;BMP_pressure;BME280_temperature;BME280_humidity;BME280_pressure;Samples;Min_cycle;Max_cycle;Signal;HPM_P1;HPM_P2
2022/12/05 00:00:26;;;;;;;2.80;2.70;;;5.80;99.90;;;;;;4929897;28;20238;-63
2022/12/05 00:02:54;;;;;;;2.70;2.60;;;5.80;99.90;;;;;;4929970;28;20295;-60
2022/12/05 00:05:21;;;;;;;2.50;2.40;;;5.80;99.90;;;;;;4929609;28;20662;-62
2022/12/05 00:07:47;;;;;;;2.50;2.40;;;5.70;99.90;;;;;;4930085;28;20204;-63
2022/12/05 00:10:15;;;;;;;2.40;2.30;;;5.70;99.90;;;;;;4929786;28;20641;-61
2022/12/05 00:12:41;;;;;;;2.77;2.67;;;5.60;99.90;;;;;;4927163;29;20529;-62
2022/12/05 00:15:11;;;;;;;2.40;2.30;;;5.60;99.90;;;;;;4930020;28;20226;-62
2022/12/05 00:17:39;;;;;;;2.37;2.27;;;5.50;99.90;;;;;;4929828;28;20221;-63
2022/12/05 00:20:09;;;;;;;3.00;2.80;;;5.40;99.90;;;;;;4929788;29;20231;-62
2022/12/05 00:22:37;;;;;;;2.60;2.50;;;5.40;99.90;;;;;;4929545;29;20205;-62
2022/12/05 00:25:04;;;;;;;2.93;2.73;;;5.50;99.90;;;;;;4929823;29;20208;-61
2022/12/05 00:27:31;;;;;;;2.83;2.73;;;5.50;99.90;;;;;;4931982;29;20224;-61
2022/12/05 00:29:58;;;;;;;3.40;3.20;;;5.50;99.90;;;;;;4928502;28;20603;-61
2022/12/05 00:32:25;;;;;;;3.10;2.90;;;5.50;99.90;;;;;;4929322;28;20210;-63
2022/12/05 00:34:52;;;;;;;2.77;2.67;;;5.50;99.90;;;;;;4932292;29;20204;-62
2022/12/05 00:37:20;;;;;;;2.67;2.57;;;5.50;99.90;;;;;;4933759;29;20311;-62
2022/12/05 00:39:47;;;;;;;3.20;3.00;;;5.50;99.90;;;;;;4933022;28;20208;-62
2022/12/05 00:42:13;;;;;;;2.43;2.33;;;5.50;99.90;;;;;;4929777;28;20312;-64
2022/12/05 00:44:40;;;;;;;2.20;2.10;;;5.50;99.90;;;;;;4928149;28;20573;-61
2022/12/05 00:47:07;;;;;;;2.30;2.20;;;5.50;99.90;;;;;;4932007;28;20236;-61
2022/12/05 00:49:34;;;;;;;2.40;2.30;;;5.50;99.90;;;;;;4933255;29;20292;-61
2022/12/05 00:52:01;;;;;;;2.30;2.07;;;5.50;99.90;;;;;;4933011;29;20301;-62
2022/12/05 00:54:29;;;;;;;2.20;2.10;;;5.50;99.90;;;;;;4940944;28;20226;-62
2022/12/05 00:56:56;;;;;;;2.00;1.90;;;5.60;99.90;;;;;;4933964;29;20719;-62
2022/12/05 00:59:23;;;;;;;2.10;2.00;;;5.50;99.90;;;;;;4933393;28;20208;-63
2022/12/05 01:01:51;;;;;;;2.20;2.10;;;5.60;99.90;;;;;;4938339;28;20322;-62
2022/12/05 01:04:20;;;;;;;2.40;2.30;;;5.50;99.90;;;;;;4932457;28;20222;-61
2022/12/05 01:06:48;;;;;;;2.07;1.97;;;5.50;99.90;;;;;;4932767;29;20227;-63
2022/12/05 01:09:17;;;;;;;2.07;1.97;;;5.50;99.90;;;;;;4937700;28;20212;-62
2022/12/05 01:11:46;;;;;;;2.20;2.10;;;5.50;99.90;;;;;;4933498;29;20214;-62
2022/12/05 01:14:15;;;;;;;2.37;2.27;;;5.40;99.90;;;;;;4932185;29;20223;-62
2022/12/05 01:16:44;;;;;;;2.30;2.20;;;5.40;99.90;;;;;;4932698;29;20246;-62
2022/12/05 01:19:13;;;;;;;2.17;2.07;;;5.40;99.90;;;;;;4932213;29;20204;-62
2022/12/05 01:21:39;;;;;;;2.30;2.20;;;5.40;99.90;;;;;;4932796;28;20561;-63
2022/12/05 01:24:07;;;;;;;2.37;2.27;;;5.30;99.90;;;;;;4932351;29;20210;-61
2022/12/05 01:26:34;;;;;;;2.23;2.13;;;5.30;99.90;;;;;;4932328;29;20290;-61
2022/12/05 01:29:03;;;;;;;2.30;2.20;;;5.30;99.90;;;;;;4933232;28;20287;-61
2022/12/05 01:31:32;;;;;;;2.40;2.30;;;5.30;99.90;;;;;;4941209;29;20311;-62
2022/12/05 01:34:00;;;;;;;2.20;2.10;;;5.20;99.90;;;;;;4934513;29;20224;-63
2022/12/05 01:36:28;;;;;;;1.97;1.87;;;5.20;99.90;;;;;;4929073;28;20223;-62
2022/12/05 01:38:56;;;;;;;1.80;1.70;;;5.30;99.90;;;;;;4930317;28;20201;-62
2022/12/05 01:41:25;;;;;;;2.30;2.20;;;5.40;99.90;;;;;;4932234;28;20223;-61
2022/12/05 01:43:58;;;;;;;2.17;2.07;;;5.30;99.90;;;;;;4951011;28;20201;-61
2022/12/05 01:46:28;;;;;;;2.20;2.10;;;5.40;99.90;;;;;;4930660;28;20303;-61
2022/12/05 01:48:59;;;;;;;1.97;1.87;;;5.40;99.90;;;;;;4931554;28;20208;-62
2022/12/05 01:51:26;;;;;;;2.10;2.00;;;5.40;99.90;;;;;;4931743;29;20533;-63
2022/12/05 01:53:53;;;;;;;2.03;1.93;;;5.40;99.90;;;;;;4931777;28;20208;-61
2022/12/05 01:56:21;;;;;;;2.23;2.13;;;5.40;99.90;;;;;;4932092;28;20601;-61
2022/12/05 01:58:48;;;;;;;1.80;1.70;;;5.40;99.90;;;;;;4932334;28;20204;-61
2022/12/05 02:01:17;;;;;;;2.20;2.10;;;5.40;99.90;;;;;;4949410;28;20318;-63
2022/12/05 02:03:48;;;;;;;2.20;2.10;;;5.40;99.90;;;;;;4925694;28;20208;-61
2022/12/05 02:06:15;;;;;;;2.30;2.20;;;5.40;99.90;;;;;;4931652;28;20273;-62
2022/12/05 02:08:44;;;;;;;2.00;1.90;;;5.30;99.90;;;;;;4931919;28;20300;-62
2022/12/05 02:11:11;;;;;;;2.10;2.00;;;5.30;99.90;;;;;;4930175;28;20204;-62
2022/12/05 02:14:01;;;;;;;2.20;2.10;;;5.40;99.90;;;;;;4931746;28;20204;-62
2022/12/05 02:16:41;;;;;;;2.17;2.07;;;5.50;99.90;;;;;;4932039;28;20254;-62
2022/12/05 02:19:37;;;;;;;2.10;2.00;;;5.50;99.90;;;;;;4936051;28;20248;-61
2022/12/05 02:22:36;;;;;;;1.90;1.80;;;5.50;99.90;;;;;;4938272;28;20200;-63
2022/12/05 02:25:20;;;;;;;2.10;2.00;;;5.50;99.90;;;;;;4941429;29;20667;-61
2022/12/05 02:28:20;;;;;;;1.70;1.60;;;5.60;99.90;;;;;;4926376;29;20228;-63
2022/12/05 02:30:54;;;;;;;1.90;1.80;;;5.60;99.90;;;;;;4930942;28;20219;-63
2022/12/05 02:33:26;;;;;;;1.80;1.70;;;5.60;99.90;;;;;;4931520;28;20226;-63
2022/12/05 02:35:59;;;;;;;2.13;2.03;;;5.60;99.90;;;;;;4928959;28;20230;-63
2022/12/05 02:38:31;;;;;;;2.00;1.90;;;5.60;99.90;;;;;;4931993;28;20204;-63
2022/12/05 02:41:08;;;;;;;2.00;1.90;;;5.60;99.90;;;;;;4932880;28;20268;-61
2022/12/05 02:43:40;;;;;;;2.00;1.90;;;5.60;99.90;;;;;;4931032;28;20675;-62
2022/12/05 02:46:13;;;;;;;1.90;1.80;;;5.60;99.90;;;;;;4933108;28;20391;-61
2022/12/05 02:48:44;;;;;;;1.90;1.80;;;5.60;99.90;;;;;;4936124;28;20200;-61
2022/12/05 02:51:17;;;;;;;1.80;1.70;;;5.60;99.90;;;;;;4932549;28;20212;-62
2022/12/05 02:53:45;;;;;;;1.60;1.60;;;5.60;99.90;;;;;;4931228;28;20204;-61
2022/12/05 02:56:12;;;;;;;1.70;1.60;;;5.60;99.90;;;;;;4931205;28;20224;-63
2022/12/05 02:58:44;;;;;;;2.00;1.90;;;5.60;99.90;;;;;;4930813;28;20227;-61
2022/12/05 03:01:12;;;;;;;1.60;1.50;;;5.60;99.90;;;;;;4931054;28;20654;-62
2022/12/05 03:03:39;;;;;;;2.00;1.90;;;5.60;99.90;;;;;;4931855;29;20242;-61
2022/12/05 03:06:12;;;;;;;1.63;1.60;;;5.60;99.90;;;;;;4932290;28;20719;-62
2022/12/05 03:08:42;;;;;;;2.00;1.90;;;5.50;99.90;;;;;;4931130;28;20227;-61
2022/12/05 03:11:09;;;;;;;1.70;1.60;;;5.60;99.90;;;;;;4930710;28;20230;-61
2022/12/05 03:13:42;;;;;;;1.80;1.70;;;5.60;99.90;;;;;;4930642;29;20208;-61
2022/12/05 03:16:15;;;;;;;1.63;1.53;;;5.60;99.90;;;;;;4931114;28;20310;-62
2022/12/05 03:18:47;;;;;;;1.80;1.70;;;5.60;99.90;;;;;;4925667;28;20212;-61
2022/12/05 03:21:22;;;;;;;1.60;1.50;;;5.60;99.90;;;;;;4930964;28;20763;-64
2022/12/05 03:23:53;;;;;;;1.70;1.60;;;5.70;99.90;;;;;;4925646;28;20294;-62
2022/12/05 03:26:37;;;;;;;1.93;1.83;;;5.80;99.90;;;;;;4930654;29;20310;-63
2022/12/05 03:29:22;;;;;;;1.90;1.80;;;5.70;99.90;;;;;;4927714;28;20204;-62
2022/12/05 03:32:06;;;;;;;1.80;1.70;;;5.50;99.90;;;;;;4930644;28;20613;-62
2022/12/05 03:34:43;;;;;;;1.60;1.60;;;5.40;99.90;;;;;;4923356;29;20256;-63
2022/12/05 03:37:18;;;;;;;1.63;1.57;;;5.40;99.90;;;;;;4930228;28;20220;-62
2022/12/05 03:39:49;;;;;;;1.60;1.60;;;5.40;99.90;;;;;;4941821;28;20231;-62
2022/12/05 03:42:20;;;;;;;1.80;1.70;;;5.30;99.90;;;;;;4930759;28;20226;-63
2022/12/05 03:44:52;;;;;;;1.77;1.67;;;5.30;99.90;;;;;;4931346;28;20726;-62
2022/12/05 03:47:26;;;;;;;1.70;1.60;;;5.30;99.90;;;;;;4943545;28;20239;-63
2022/12/05 03:49:58;;;;;;;1.90;1.80;;;5.30;99.90;;;;;;4928472;28;20204;-62
2022/12/05 03:52:30;;;;;;;1.53;1.50;;;5.30;99.90;;;;;;4929503;28;20635;-62
2022/12/05 03:55:00;;;;;;;1.50;1.50;;;5.30;99.90;;;;;;4926216;28;20704;-62
2022/12/05 03:57:31;;;;;;;1.87;1.77;;;5.30;99.90;;;;;;4930223;28;20295;-62
2022/12/05 04:00:04;;;;;;;1.83;1.73;;;5.30;99.90;;;;;;4926510;28;20644;-62
2022/12/05 04:02:45;;;;;;;1.73;1.67;;;5.20;99.90;;;;;;4923732;28;20693;-62
2022/12/05 04:05:19;;;;;;;1.80;1.70;;;5.10;99.90;;;;;;4952013;28;20211;-62
2022/12/05 04:07:48;;;;;;;1.70;1.60;;;5.10;99.90;;;;;;4930255;28;20230;-63
2022/12/05 04:10:19;;;;;;;2.00;1.90;;;5.10;99.90;;;;;;4951360;28;20202;-62
2022/12/05 04:12:48;;;;;;;1.93;1.83;;;5.10;99.90;;;;;;4933506;28;20215;-63
2022/12/05 04:15:21;;;;;;;1.80;1.70;;;5.10;99.90;;;;;;4931735;28;20212;-63
2022/12/05 04:17:54;;;;;;;1.53;1.53;;;5.10;99.90;;;;;;4933346;28;20196;-63
2022/12/05 04:23:11;;;;;;;1.87;1.77;;;5.10;99.90;;;;;;4933424;29;20215;-63
2022/12/05 04:25:49;;;;;;;1.70;1.60;;;5.10;99.90;;;;;;4933521;28;20604;-63
2022/12/05 04:28:26;;;;;;;1.50;1.50;;;5.20;99.90;;;;;;4933593;28;20718;-63
2022/12/05 04:31:03;;;;;;;1.73;1.63;;;5.20;99.90;;;;;;4933482;29;20218;-62
2022/12/05 04:33:40;;;;;;;1.40;1.40;;;5.20;99.90;;;;;;4929372;28;20265;-63
2022/12/05 04:36:12;;;;;;;1.80;1.70;;;5.20;99.90;;;;;;4933334;28;20311;-62
2022/12/05 04:38:43;;;;;;;1.50;1.50;;;5.20;99.90;;;;;;4933304;28;20196;-63
2022/12/05 04:41:15;;;;;;;1.73;1.63;;;5.30;99.90;;;;;;4933492;28;20236;-62
2022/12/05 04:43:45;;;;;;;1.60;1.60;;;5.30;99.90;;;;;;4931750;28;20212;-62
2022/12/05 04:46:14;;;;;;;1.70;1.60;;;5.20;99.90;;;;;;4935084;28;20236;-62
2022/12/05 04:48:48;;;;;;;1.50;1.50;;;5.20;99.90;;;;;;4942660;29;20250;-62
2022/12/05 04:51:20;;;;;;;1.50;1.50;;;5.20;99.90;;;;;;4936881;28;20212;-62
2022/12/05 04:53:52;;;;;;;1.60;1.60;;;5.30;99.90;;;;;;4935004;28;20208;-63
2022/12/05 04:56:21;;;;;;;1.60;1.50;;;5.30;99.90;;;;;;4935221;28;20238;-62
2022/12/05 04:58:48;;;;;;;1.57;1.50;;;5.40;99.90;;;;;;4935155;28;20196;-63
2022/12/05 05:01:21;;;;;;;1.60;1.50;;;5.40;99.90;;;;;;4934786;28;20303;-62
2022/12/05 05:03:54;;;;;;;1.30;1.30;;;5.50;99.90;;;;;;4934403;28;20204;-62
2022/12/05 05:06:21;;;;;;;1.70;1.60;;;5.50;99.90;;;;;;4958520;28;20236;-63
2022/12/05 05:08:50;;;;;;;1.57;1.57;;;5.50;99.90;;;;;;4934599;28;20402;-61
2022/12/05 05:11:19;;;;;;;1.53;1.47;;;5.50;99.90;;;;;;4934342;28;20705;-63
2022/12/05 05:13:46;;;;;;;1.80;1.70;;;5.50;99.90;;;;;;4934273;28;20291;-62
2022/12/05 05:16:17;;;;;;;1.67;1.60;;;5.60;99.90;;;;;;4934164;28;20239;-62
2022/12/05 05:18:44;;;;;;;1.50;1.43;;;5.50;99.90;;;;;;4928808;29;20208;-63
2022/12/05 05:21:19;;;;;;;1.30;1.30;;;5.60;99.90;;;;;;4934244;29;20201;-62
2022/12/05 05:23:45;;;;;;;1.23;1.23;;;5.60;99.90;;;;;;4934124;28;20208;-63
2022/12/05 05:26:13;;;;;;;1.60;1.50;;;5.70;99.90;;;;;;4934365;28;20246;-64
2022/12/05 05:28:39;;;;;;;1.40;1.30;;;5.70;99.90;;;;;;4927426;29;20711;-62
2022/12/05 05:31:07;;;;;;;1.30;1.30;;;5.70;99.90;;;;;;4934066;29;20211;-62
2022/12/05 05:33:34;;;;;;;1.40;1.40;;;5.70;99.90;;;;;;4939046;29;20208;-62
2022/12/05 05:36:03;;;;;;;1.37;1.37;;;5.80;99.90;;;;;;4940645;29;20662;-62
2022/12/05 05:38:34;;;;;;;1.43;1.43;;;5.80;99.90;;;;;;4936892;29;20196;-62
2022/12/05 05:41:01;;;;;;;1.43;1.43;;;5.80;99.90;;;;;;4935861;28;20222;-63
2022/12/05 05:43:28;;;;;;;1.37;1.33;;;5.70;99.90;;;;;;4935121;28;20698;-61
2022/12/05 05:45:55;;;;;;;1.60;1.50;;;5.70;99.90;;;;;;4933414;28;20246;-62
2022/12/05 05:48:22;;;;;;;1.80;1.70;;;5.60;99.90;;;;;;4933413;28;20295;-63
2022/12/05 05:50:48;;;;;;;1.60;1.50;;;5.60;99.90;;;;;;4934062;28;20236;-63
2022/12/05 05:53:15;;;;;;;1.50;1.50;;;5.60;99.90;;;;;;4935206;29;20218;-62
2022/12/05 05:55:43;;;;;;;1.47;1.43;;;5.70;99.90;;;;;;4939644;28;20224;-63
2022/12/05 05:58:10;;;;;;;1.60;1.60;;;5.70;99.90;;;;;;4941128;28;20197;-63
2022/12/05 06:00:37;;;;;;;1.20;1.20;;;5.70;99.90;;;;;;4939195;28;20215;-62
2022/12/05 06:03:04;;;;;;;1.33;1.33;;;5.70;99.90;;;;;;4943937;29;20273;-62
2022/12/05 06:05:31;;;;;;;1.40;1.40;;;5.60;99.90;;;;;;4948560;29;20284;-62
2022/12/05 06:07:58;;;;;;;1.83;1.73;;;5.80;99.90;;;;;;4941318;29;20247;-62
2022/12/05 06:10:24;;;;;;;1.70;1.60;;;5.70;99.90;;;;;;4942387;28;20232;-62
2022/12/05 06:12:53;;;;;;;1.90;1.80;;;5.70;99.90;;;;;;4934500;29;20672;-62
2022/12/05 06:15:19;;;;;;;2.07;1.97;;;5.80;99.90;;;;;;4931056;29;20246;-63
2022/12/05 06:17:46;;;;;;;2.03;1.93;;;5.80;99.90;;;;;;4931189;29;20200;-62
2022/12/05 06:20:13;;;;;;;1.87;1.77;;;5.90;99.90;;;;;;4931241;28;20253;-62
2022/12/05 06:22:40;;;;;;;2.60;2.40;;;5.80;99.90;;;;;;4930910;28;20208;-62
2022/12/05 06:25:08;;;;;;;2.50;2.40;;;5.70;99.90;;;;;;4931289;29;20215;-62
2022/12/05 06:27:35;;;;;;;2.93;2.73;;;5.60;99.90;;;;;;4931696;29;20234;-61
2022/12/05 06:30:04;;;;;;;2.93;2.73;;;5.50;99.90;;;;;;4932056;29;20204;-62
2022/12/05 06:32:31;;;;;;;2.70;2.53;;;5.40;99.90;;;;;;4929466;28;20613;-61
2022/12/05 06:34:58;;;;;;;2.43;2.33;;;5.40;99.90;;;;;;4930380;29;20204;-62
2022/12/05 06:37:26;;;;;;;2.60;2.50;;;5.40;99.90;;;;;;4930902;29;20283;-63
2022/12/05 06:39:53;;;;;;;2.40;2.30;;;5.30;99.90;;;;;;4932248;29;20719;-63
2022/12/05 06:42:21;;;;;;;2.70;2.60;;;5.40;99.90;;;;;;4931413;29;20643;-63
2022/12/05 06:44:47;;;;;;;2.60;2.50;;;5.30;99.90;;;;;;4933145;29;20311;-63
2022/12/05 06:47:16;;;;;;;2.40;2.30;;;5.30;99.90;;;;;;4931788;28;20223;-62
2022/12/05 06:49:42;;;;;;;2.43;2.33;;;5.40;99.90;;;;;;4932089;29;20211;-61
2022/12/05 06:52:09;;;;;;;2.50;2.40;;;5.30;99.90;;;;;;4930460;29;20695;-63
2022/12/05 06:54:36;;;;;;;2.27;2.17;;;5.30;99.90;;;;;;4936676;28;20208;-62
2022/12/05 06:57:03;;;;;;;2.13;2.03;;;5.30;99.90;;;;;;4937710;28;20657;-64
2022/12/05 06:59:30;;;;;;;2.33;2.23;;;5.30;99.90;;;;;;4930557;29;20243;-62
2022/12/05 07:01:56;;;;;;;2.37;2.27;;;5.40;99.90;;;;;;4935333;29;20212;-64
2022/12/05 07:04:24;;;;;;;2.17;2.07;;;5.50;99.90;;;;;;4934595;29;20759;-63
2022/12/05 07:06:52;;;;;;;2.47;2.37;;;5.50;99.90;;;;;;4932335;28;20224;-62
2022/12/05 07:09:21;;;;;;;2.40;2.30;;;5.50;99.90;;;;;;4932311;29;20691;-62
2022/12/05 07:11:48;;;;;;;2.50;2.40;;;5.60;99.90;;;;;;4932581;29;20576;-62
2022/12/05 07:14:15;;;;;;;2.20;2.10;;;5.60;99.90;;;;;;4929905;28;20695;-63
2022/12/05 07:16:41;;;;;;;2.67;2.47;;;5.60;99.90;;;;;;4931432;29;20232;-61
2022/12/05 07:19:09;;;;;;;2.27;2.17;;;5.70;99.90;;;;;;4932581;29;20200;-62
2022/12/05 07:21:38;;;;;;;2.40;2.30;;;5.70;99.90;;;;;;4933128;29;20243;-62
2022/12/05 07:24:05;;;;;;;2.63;2.43;;;5.70;99.90;;;;;;4932086;28;20208;-63
2022/12/05 07:26:32;;;;;;;2.57;2.47;;;5.70;99.90;;;;;;4932571;29;20224;-64
2022/12/05 07:28:58;;;;;;;2.20;2.10;;;5.70;99.90;;;;;;4932549;29;20220;-63
2022/12/05 07:31:28;;;;;;;2.33;2.20;;;5.70;99.90;;;;;;4932446;29;20204;-62
2022/12/05 07:33:55;;;;;;;2.07;1.97;;;5.80;99.90;;;;;;4932426;28;20204;-64
2022/12/05 07:36:23;;;;;;;2.20;2.10;;;5.80;99.90;;;;;;4932678;29;20600;-63
2022/12/05 07:38:55;;;;;;;2.07;1.97;;;5.80;99.90;;;;;;4932464;29;20208;-63
2022/12/05 07:41:25;;;;;;;2.20;2.10;;;5.80;99.90;;;;;;4932628;28;20565;-63
2022/12/05 07:43:52;;;;;;;2.33;2.23;;;5.90;99.90;;;;;;4931009;29;20295;-65
2022/12/05 07:46:19;;;;;;;2.20;2.10;;;5.90;99.90;;;;;;4921641;29;20319;-63
2022/12/05 07:48:48;;;;;;;2.13;2.03;;;6.00;99.90;;;;;;4927390;28;20735;-64
2022/12/05 07:51:15;;;;;;;1.90;1.80;;;6.00;99.90;;;;;;4932771;29;20224;-64
2022/12/05 07:53:43;;;;;;;1.90;1.80;;;6.00;99.90;;;;;;4932301;29;20209;-62
2022/12/05 07:56:13;;;;;;;1.70;1.60;;;6.10;99.90;;;;;;4930216;29;20797;-63
2022/12/05 07:58:40;;;;;;;1.73;1.63;;;6.10;99.90;;;;;;4925560;28;20287;-63
2022/12/05 08:01:08;;;;;;;1.70;1.60;;;6.20;99.90;;;;;;4931209;29;20204;-63
2022/12/05 08:03:36;;;;;;;1.80;1.70;;;6.30;99.90;;;;;;4930912;29;20208;-62
2022/12/05 08:06:03;;;;;;;1.63;1.53;;;6.40;99.90;;;;;;4930562;28;20236;-63
2022/12/05 08:08:30;;;;;;;1.87;1.77;;;6.40;99.90;;;;;;4927910;29;20224;-63
2022/12/05 08:11:02;;;;;;;1.83;1.73;;;6.50;99.90;;;;;;4933148;28;20200;-63
2022/12/05 08:13:31;;;;;;;1.97;1.80;;;6.40;99.90;;;;;;4932445;28;20208;-63
2022/12/05 08:16:02;;;;;;;1.90;1.80;;;6.40;99.90;;;;;;4933416;29;20231;-63
2022/12/05 08:18:29;;;;;;;1.90;1.80;;;6.40;99.90;;;;;;4932115;29;20201;-63
2022/12/05 08:20:56;;;;;;;2.10;2.00;;;6.40;99.90;;;;;;4932848;29;20216;-62
2022/12/05 08:23:23;;;;;;;2.10;2.00;;;6.50;99.90;;;;;;4933048;28;21709;-63
2022/12/05 08:25:50;;;;;;;1.73;1.63;;;6.50;99.90;;;;;;4933295;29;20281;-63
2022/12/05 08:28:17;;;;;;;2.00;1.90;;;6.60;99.90;;;;;;4933122;28;20224;-62
2022/12/05 08:30:45;;;;;;;1.83;1.73;;;6.70;99.90;;;;;;4933520;29;20220;-62
2022/12/05 08:33:12;;;;;;;1.80;1.70;;;6.70;99.90;;;;;;4932422;28;20212;-62
2022/12/05 08:35:39;;;;;;;1.80;1.70;;;6.60;99.90;;;;;;4931247;29;20246;-62
2022/12/05 08:38:06;;;;;;;2.00;1.90;;;6.60;99.90;;;;;;4928586;28;20207;-64
2022/12/05 08:40:33;;;;;;;2.43;2.23;;;6.50;99.90;;;;;;4931564;29;20649;-63
2022/12/05 08:43:00;;;;;;;2.40;2.13;;;6.50;99.90;;;;;;4927548;29;20272;-63
2022/12/05 08:45:27;;;;;;;1.73;1.67;;;6.50;99.90;;;;;;4932264;28;20228;-63
2022/12/05 08:47:55;;;;;;;1.80;1.70;;;6.50;99.90;;;;;;4932177;29;20232;-62
2022/12/05 08:50:22;;;;;;;1.80;1.70;;;6.50;99.90;;;;;;4930823;28;20603;-63
2022/12/05 08:52:49;;;;;;;1.70;1.60;;;6.60;99.90;;;;;;4930878;28;20239;-63
2022/12/05 08:55:19;;;;;;;2.00;1.90;;;6.70;99.90;;;;;;4928823;28;20266;-63
2022/12/05 08:57:46;;;;;;;2.10;2.00;;;6.70;99.90;;;;;;4934205;29;20209;-63
2022/12/05 09:00:14;;;;;;;1.80;1.70;;;6.80;99.90;;;;;;4945332;28;20212;-62
2022/12/05 09:02:41;;;;;;;2.20;2.10;;;6.80;99.90;;;;;;4934165;28;20331;-62
2022/12/05 09:05:10;;;;;;;2.03;1.93;;;6.90;99.90;;;;;;4932891;28;20200;-63
2022/12/05 09:07:37;;;;;;;2.00;1.90;;;7.00;99.90;;;;;;4931693;28;20230;-63
2022/12/05 09:10:04;;;;;;;2.63;2.00;;;7.10;99.90;;;;;;4933456;29;20279;-63
2022/12/05 09:12:31;;;;;;;1.80;1.70;;;7.20;99.90;;;;;;4933076;28;20222;-63
2022/12/05 09:14:57;;;;;;;1.60;1.50;;;7.20;99.90;;;;;;4933058;28;20204;-62
2022/12/05 09:17:24;;;;;;;1.87;1.77;;;7.20;99.90;;;;;;4929245;28;20537;-64
2022/12/05 09:19:51;;;;;;;1.40;1.40;;;7.30;99.90;;;;;;4926828;29;20201;-62
2022/12/05 09:22:21;;;;;;;1.60;1.50;;;7.40;99.90;;;;;;4929909;28;20672;-63
2022/12/05 09:24:48;;;;;;;1.50;1.40;;;7.50;99.90;;;;;;4925211;28;20210;-64
2022/12/05 09:27:15;;;;;;;1.27;1.27;;;7.50;99.90;;;;;;4933291;28;20228;-64
2022/12/05 09:29:42;;;;;;;1.60;1.60;;;7.60;99.90;;;;;;4932124;29;20224;-63
2022/12/05 09:32:10;;;;;;;1.73;1.63;;;7.60;99.90;;;;;;4926132;28;20736;-63
2022/12/05 09:34:37;;;;;;;1.50;1.47;;;7.60;99.90;;;;;;4933049;29;20346;-64
2022/12/05 09:37:04;;;;;;;1.50;1.50;;;7.60;99.90;;;;;;4935959;28;20228;-62
2022/12/05 09:39:32;;;;;;;1.40;1.40;;;7.60;99.90;;;;;;4934592;29;20298;-62
2022/12/05 09:42:38;;;;;;;1.20;1.20;;;7.60;99.90;;;;;;4931085;28;20208;-64
2022/12/05 09:45:16;;;;;;;1.30;1.30;;;7.70;99.90;;;;;;4895074;28;20205;-64
2022/12/05 09:47:49;;;;;;;1.20;1.20;;;7.70;99.90;;;;;;4917833;29;20208;-63
2022/12/05 09:50:21;;;;;;;1.63;1.53;;;7.80;99.90;;;;;;4933568;28;20243;-64
2022/12/05 09:53:04;;;;;;;1.70;1.50;;;7.80;99.90;;;;;;4933135;28;20208;-62
2022/12/05 09:55:41;;;;;;;1.50;1.40;;;7.80;99.90;;;;;;4957000;28;20234;-64
2022/12/05 09:58:21;;;;;;;1.80;1.70;;;7.90;99.90;;;;;;4957863;28;20578;-64
2022/12/05 10:00:51;;;;;;;1.70;1.50;;;7.90;99.90;;;;;;4933693;29;20338;-64
2022/12/05 10:03:25;;;;;;;1.53;1.43;;;8.00;99.90;;;;;;4933267;29;20208;-63
2022/12/05 10:06:01;;;;;;;1.60;1.50;;;8.00;99.90;;;;;;4933388;28;20227;-63
2022/12/05 10:08:33;;;;;;;1.17;1.17;;;8.10;99.90;;;;;;4919349;29;20220;-62
2022/12/05 10:11:05;;;;;;;1.33;1.33;;;8.10;99.90;;;;;;4933663;29;20571;-63
2022/12/05 10:13:45;;;;;;;1.33;1.33;;;8.10;99.90;;;;;;4933049;28;20224;-62
2022/12/05 10:16:17;;;;;;;1.33;1.33;;;8.20;99.90;;;;;;4933225;28;20282;-64
2022/12/05 10:18:48;;;;;;;1.10;1.10;;;8.10;99.90;;;;;;4927508;29;20287;-64
2022/12/05 10:21:19;;;;;;;1.10;1.10;;;8.10;99.90;;;;;;4933253;29;20215;-62
2022/12/05 10:23:54;;;;;;;0.90;0.90;;;8.10;99.90;;;;;;4927525;28;20311;-63
2022/12/05 10:26:26;;;;;;;1.10;1.10;;;8.20;99.90;;;;;;4933268;29;20227;-62
2022/12/05 10:29:00;;;;;;;1.20;1.20;;;8.20;99.90;;;;;;4953023;28;20344;-64
2022/12/05 10:31:31;;;;;;;1.00;1.00;;;8.20;99.90;;;;;;4932986;28;20235;-63
2022/12/05 10:34:04;;;;;;;1.10;1.10;;;8.30;99.90;;;;;;4933138;29;20208;-63
2022/12/05 10:36:31;;;;;;;0.90;0.90;;;8.30;99.90;;;;;;4925721;29;20581;-62
2022/12/05 10:38:59;;;;;;;0.90;0.90;;;8.40;99.90;;;;;;4967121;28;20681;-64
2022/12/05 10:41:28;;;;;;;1.10;1.10;;;8.50;99.90;;;;;;4932863;28;20219;-63
2022/12/05 10:43:58;;;;;;;1.10;1.10;;;8.50;99.90;;;;;;4931457;28;20216;-62
2022/12/05 10:46:26;;;;;;;1.23;1.23;;;8.60;99.90;;;;;;4923534;29;20227;-63
2022/12/05 10:48:53;;;;;;;0.97;0.97;;;8.60;99.90;;;;;;4931183;28;20231;-64
2022/12/05 10:51:28;;;;;;;0.90;0.90;;;8.70;99.90;;;;;;4931553;28;20208;-62
2022/12/05 10:53:56;;;;;;;1.00;1.00;;;8.80;99.90;;;;;;4931004;28;20743;-63
2022/12/05 10:56:45;;;;;;;0.93;0.93;;;8.80;99.90;;;;;;4931214;29;20228;-64
2022/12/05 10:59:13;;;;;;;1.00;1.00;;;8.90;99.90;;;;;;4931632;29;20661;-62
2022/12/05 11:01:46;;;;;;;0.83;0.83;;;8.90;99.90;;;;;;4930515;28;20211;-64
2022/12/05 11:04:21;;;;;;;1.00;1.00;;;9.00;99.90;;;;;;4933509;29;20216;-62
2022/12/05 11:06:55;;;;;;;1.60;0.90;;;9.00;99.90;;;;;;4927635;29;20311;-65
2022/12/05 11:09:24;;;;;;;1.00;1.00;;;9.00;99.90;;;;;;4923217;29;20221;-62
2022/12/05 11:12:05;;;;;;;0.90;0.90;;;9.00;99.90;;;;;;4932360;29;20204;-64
2022/12/05 11:14:34;;;;;;;0.90;0.90;;;9.00;99.90;;;;;;4925676;28;20227;-62
2022/12/05 11:17:04;;;;;;;0.70;0.70;;;9.20;99.90;;;;;;4932327;28;20232;-64
2022/12/05 11:19:35;;;;;;;1.20;1.00;;;9.10;99.90;;;;;;4925746;29;20206;-63
2022/12/05 11:22:03;;;;;;;1.07;1.07;;;9.10;99.90;;;;;;4926856;29;20210;-63
2022/12/05 11:24:32;;;;;;;0.80;0.80;;;9.20;99.90;;;;;;4924549;28;20270;-62
2022/12/05 11:27:20;;;;;;;0.80;0.80;;;9.10;99.90;;;;;;4932720;29;20250;-64
2022/12/05 11:29:55;;;;;;;0.77;0.77;;;9.00;99.90;;;;;;4925958;28;20228;-62
2022/12/05 11:32:23;;;;;;;0.80;0.80;;;9.00;99.90;;;;;;4931156;29;20610;-63
2022/12/05 11:34:53;;;;;;;0.70;0.70;;;9.00;99.90;;;;;;4932024;29;20212;-63
2022/12/05 11:37:25;;;;;;;0.77;0.77;;;8.90;99.90;;;;;;4928512;28;20231;-63
2022/12/05 11:39:52;;;;;;;0.90;0.90;;;9.00;99.90;;;;;;4926477;29;20295;-63
2022/12/05 11:42:32;;;;;;;2.03;1.27;;;9.00;99.90;;;;;;4931820;29;20236;-62
2022/12/05 11:45:17;;;;;;;0.87;0.87;;;9.00;99.90;;;;;;4932026;29;20231;-63
2022/12/05 11:48:10;;;;;;;0.60;0.60;;;9.00;99.90;;;;;;4929573;28;20208;-64
2022/12/05 11:50:45;;;;;;;0.67;0.67;;;9.00;99.90;;;;;;4925312;29;20722;-64
2022/12/05 11:53:30;;;;;;;0.70;0.70;;;9.00;99.90;;;;;;4929302;29;20207;-63
2022/12/05 11:56:08;;;;;;;0.80;0.80;;;9.00;99.90;;;;;;4931623;28;20235;-62
2022/12/05 11:58:54;;;;;;;0.93;0.93;;;8.90;99.90;;;;;;4931668;28;20234;-63
2022/12/05 12:01:35;;;;;;;0.80;0.80;;;8.90;99.90;;;;;;4928167;29;20236;-64
2022/12/05 12:04:33;;;;;;;0.83;0.83;;;9.00;99.90;;;;;;4939747;28;20545;-63
2022/12/05 12:07:18;;;;;;;0.70;0.70;;;8.90;99.90;;;;;;4928052;29;20281;-63
2022/12/05 12:09:53;;;;;;;5.07;1.27;;;9.00;99.90;;;;;;4936772;28;20220;-62
2022/12/05 12:12:29;;;;;;;0.90;0.90;;;9.00;99.90;;;;;;4964432;28;20215;-64
2022/12/05 12:15:14;;;;;;;1.00;1.00;;;9.00;99.90;;;;;;4944433;28;20618;-64
2022/12/05 12:17:50;;;;;;;1.00;1.00;;;9.00;99.90;;;;;;4926068;29;20625;-63
2022/12/05 12:20:33;;;;;;;0.70;0.70;;;8.90;99.90;;;;;;4931944;28;20211;-63
2022/12/05 12:23:18;;;;;;;1.30;1.20;;;8.90;99.90;;;;;;4932153;28;20204;-61
2022/12/05 12:25:54;;;;;;;0.83;0.83;;;8.80;99.90;;;;;;4930026;28;20319;-61
2022/12/05 12:28:35;;;;;;;1.00;1.00;;;8.70;99.90;;;;;;4932257;28;20215;-62
2022/12/05 12:31:15;;;;;;;0.97;0.97;;;8.60;99.90;;;;;;4960631;28;20684;-63
2022/12/05 12:33:48;;;;;;;0.80;0.80;;;8.60;99.90;;;;;;4932603;28;20370;-62
2022/12/05 12:36:18;;;;;;;1.07;1.07;;;8.50;99.90;;;;;;4966994;28;20307;-64
2022/12/05 12:38:58;;;;;;;0.90;0.90;;;8.50;99.90;;;;;;4933880;29;20208;-62
2022/12/05 12:41:41;;;;;;;1.30;1.27;;;8.50;99.90;;;;;;4934444;28;20559;-64
2022/12/05 12:44:25;;;;;;;1.17;1.17;;;8.40;99.90;;;;;;4931638;28;20200;-64
2022/12/05 12:46:57;;;;;;;1.37;1.30;;;8.40;99.90;;;;;;4925908;28;20310;-62
2022/12/05 12:49:38;;;;;;;2.30;1.40;;;8.50;99.90;;;;;;4933986;29;20226;-62
2022/12/05 12:52:13;;;;;;;1.10;1.10;;;8.60;99.90;;;;;;4934987;28;20204;-62
2022/12/05 12:55:02;;;;;;;0.90;0.90;;;8.60;99.90;;;;;;4934232;28;20580;-63
2022/12/05 12:57:37;;;;;;;4.07;2.20;;;8.60;99.90;;;;;;4933947;28;20247;-63
2022/12/05 13:00:15;;;;;;;1.10;1.10;;;8.60;99.90;;;;;;4930812;28;20196;-64
2022/12/05 13:02:46;;;;;;;1.80;1.23;;;8.60;99.90;;;;;;4934273;29;20690;-64
2022/12/05 13:05:23;;;;;;;3.97;1.50;;;8.70;99.90;;;;;;4934295;28;20204;-63
2022/12/05 13:07:53;;;;;;;1.10;1.10;;;8.70;99.90;;;;;;4931521;29;20205;-63
2022/12/05 13:10:27;;;;;;;1.47;1.37;;;8.70;99.90;;;;;;4939329;28;20212;-63
2022/12/05 13:12:55;;;;;;;1.30;1.20;;;8.80;99.90;;;;;;4936698;29;20220;-64
2022/12/05 13:15:28;;;;;;;1.33;1.33;;;8.70;99.90;;;;;;4933940;28;20258;-61
2022/12/05 13:17:56;;;;;;;0.97;0.97;;;8.70;99.90;;;;;;4929559;28;20295;-63
2022/12/05 13:20:27;;;;;;;1.30;1.27;;;8.70;99.90;;;;;;4933316;29;20732;-62